createdAt,value
2023-03-16T00:00:48.913Z,0.60
2023-03-16T00:03:19.468Z,0.77
2023-03-16T00:05:50.912Z,0.82
2023-03-16T00:08:19.409Z,0.80
2023-03-16T00:10:47.699Z,1.10
2023-03-16T00:13:19.649Z,0.80
2023-03-16T00:15:52.463Z,0.73
2023-03-16T00:18:20.317Z,0.93
2023-03-16T00:20:52.340Z,0.80
2023-03-16T00:23:20.100Z,1.00
2023-03-16T00:25:47.874Z,1.10
2023-03-16T00:28:15.472Z,1.05
2023-03-16T00:30:47.532Z,1.30
2023-03-16T00:33:16.044Z,1.45
2023-03-16T00:35:50.518Z,1.12
2023-03-16T00:38:19.424Z,1.03
2023-03-16T00:40:47.232Z,1.10
2023-03-16T00:43:18.796Z,1.12
2023-03-16T00:45:46.768Z,1.10
2023-03-16T00:48:14.312Z,1.20
2023-03-16T00:50:43.214Z,1.30
2023-03-16T00:53:11.049Z,1.10
2023-03-16T00:55:38.742Z,0.90
2023-03-16T00:58:06.301Z,0.93
2023-03-16T01:00:34.125Z,1.45
2023-03-16T01:03:03.585Z,0.90
2023-03-16T01:05:33.562Z,1.12
2023-03-16T01:08:04.325Z,1.35
2023-03-16T01:10:31.852Z,0.95
2023-03-16T01:12:59.341Z,1.10
2023-03-16T01:15:27.220Z,0.83
2023-03-16T01:17:55.117Z,1.00
2023-03-16T01:20:23.131Z,1.23
2023-03-16T01:22:51.339Z,1.15
2023-03-16T01:25:19.243Z,1.02
2023-03-16T01:27:46.876Z,1.60
2023-03-16T01:30:14.747Z,1.92
2023-03-16T01:32:43.564Z,1.23
2023-03-16T01:35:12.528Z,1.40
2023-03-16T01:37:40.394Z,1.50
2023-03-16T01:40:09.310Z,1.87
2023-03-16T01:42:59.316Z,1.35
2023-03-16T01:46:04.551Z,1.50
2023-03-16T01:48:42.601Z,1.00
2023-03-16T01:51:16.022Z,1.37
2023-03-16T01:53:47.168Z,1.10
2023-03-16T01:56:20.273Z,1.37
2023-03-16T01:58:47.929Z,1.10
2023-03-16T02:01:15.918Z,1.30
2023-03-16T02:03:44.562Z,1.17
2023-03-16T02:06:18.306Z,1.10
2023-03-16T02:08:47.952Z,1.33
2023-03-16T02:11:19.864Z,1.50
2023-03-16T02:13:49.302Z,1.33
2023-03-16T02:16:19.653Z,1.35
2023-03-16T02:18:51.612Z,1.20
2023-03-16T02:21:46.103Z,1.45
2023-03-16T02:24:13.944Z,1.33
2023-03-16T02:26:47.959Z,1.20
2023-03-16T02:29:47.578Z,1.02
2023-03-16T02:32:17.450Z,1.20
2023-03-16T02:34:45.537Z,1.08
2023-03-16T02:37:13.419Z,1.62
2023-03-16T02:39:44.229Z,1.55
2023-03-16T02:42:17.105Z,0.98
2023-03-16T02:44:49.331Z,1.33
2023-03-16T02:47:35.167Z,1.35
2023-03-16T02:50:06.638Z,1.35
2023-03-16T02:52:37.590Z,1.60
2023-03-16T02:55:06.535Z,1.10
2023-03-16T02:57:34.710Z,1.00
2023-03-16T03:00:06.674Z,0.90
2023-03-16T03:02:34.547Z,1.17
2023-03-16T03:05:02.101Z,1.10
2023-03-16T03:07:31.930Z,1.20
2023-03-16T03:10:03.013Z,0.70
2023-03-16T03:12:31.134Z,1.12
2023-03-16T03:14:59.198Z,1.23
2023-03-16T03:17:30.276Z,1.15
2023-03-16T03:20:13.625Z,1.20
2023-03-16T03:22:41.877Z,1.40
2023-03-16T03:25:09.951Z,1.00
2023-03-16T03:27:37.960Z,1.10
2023-03-16T03:30:07.167Z,0.60
2023-03-16T03:32:34.808Z,0.82
2023-03-16T03:35:02.409Z,1.23
2023-03-16T03:37:30.311Z,1.00
2023-03-16T03:39:57.858Z,1.20
2023-03-16T03:42:25.949Z,0.70
2023-03-16T03:44:53.963Z,1.15
2023-03-16T03:47:21.422Z,1.20
2023-03-16T03:49:49.131Z,0.95
2023-03-16T03:52:17.305Z,0.68
2023-03-16T03:54:45.140Z,1.15
2023-03-16T03:57:12.984Z,1.02
2023-03-16T03:59:43.874Z,0.73
2023-03-16T04:02:12.508Z,0.95
2023-03-16T04:04:41.946Z,1.12
2023-03-16T04:07:10.750Z,1.10
2023-03-16T04:09:38.749Z,0.80
2023-03-16T04:12:07.760Z,0.90
2023-03-16T04:14:35.350Z,0.70
2023-03-16T04:17:05.029Z,0.55
2023-03-16T04:19:33.984Z,0.75
2023-03-16T04:22:01.509Z,0.40
2023-03-16T04:24:29.213Z,0.97
2023-03-16T04:26:57.103Z,0.80
2023-03-16T04:29:25.478Z,1.05
2023-03-16T04:31:54.021Z,1.05
2023-03-16T04:34:25.231Z,0.85
2023-03-16T04:36:54.349Z,1.00
2023-03-16T04:39:22.411Z,0.90
2023-03-16T04:41:51.516Z,1.08
2023-03-16T04:44:19.925Z,0.77
2023-03-16T04:46:49.572Z,0.98
2023-03-16T04:49:18.013Z,0.90
2023-03-16T04:51:45.680Z,0.73
2023-03-16T04:54:13.502Z,1.17
2023-03-16T04:56:41.824Z,0.90
2023-03-16T04:59:10.885Z,0.85
2023-03-16T05:01:39.958Z,1.20
2023-03-16T05:04:07.488Z,0.90
2023-03-16T05:06:35.891Z,1.10
2023-03-16T05:09:06.086Z,1.20
2023-03-16T05:11:35.814Z,1.58
2023-03-16T05:14:05.352Z,0.97
2023-03-16T05:16:33.383Z,1.30
2023-03-16T05:19:01.924Z,1.30
2023-03-16T05:21:32.199Z,0.82
2023-03-16T05:24:00.044Z,1.70
2023-03-16T05:26:27.571Z,1.40
2023-03-16T05:28:55.779Z,1.40
2023-03-16T05:31:23.946Z,1.17
2023-03-16T05:33:53.573Z,1.42
2023-03-16T05:36:21.431Z,1.52
2023-03-16T05:38:49.281Z,1.37
2023-03-16T05:41:21.501Z,1.58
2023-03-16T05:43:50.131Z,1.50
2023-03-16T05:46:20.602Z,1.48
2023-03-16T05:48:49.390Z,1.85
2023-03-16T05:51:18.166Z,1.87
2023-03-16T05:53:46.827Z,1.67
2023-03-16T05:56:15.174Z,1.70
2023-03-16T05:58:43.265Z,2.08
2023-03-16T06:01:13.022Z,2.20
2023-03-16T06:03:41.964Z,1.90
2023-03-16T06:06:09.876Z,2.47
2023-03-16T06:08:38.217Z,2.45
2023-03-16T06:11:07.063Z,2.30
2023-03-16T06:13:35.031Z,2.28
2023-03-16T06:16:02.971Z,2.17
2023-03-16T06:18:31.197Z,2.72
2023-03-16T06:20:59.320Z,2.70
2023-03-16T06:23:27.337Z,2.08
2023-03-16T06:25:55.480Z,2.58
2023-03-16T06:28:23.629Z,1.90
2023-03-16T06:30:56.083Z,1.65
2023-03-16T06:33:24.939Z,2.42
2023-03-16T06:35:52.664Z,2.45
2023-03-16T06:38:21.763Z,2.70
2023-03-16T06:40:54.936Z,2.50
2023-03-16T06:43:22.672Z,2.12
2023-03-16T06:45:51.170Z,3.00
2023-03-16T06:48:19.924Z,2.75
2023-03-16T06:50:47.938Z,2.80
2023-03-16T06:53:17.079Z,1.97
2023-03-16T06:55:44.646Z,2.85
2023-03-16T06:58:12.451Z,2.87
2023-03-16T07:00:40.358Z,2.95
2023-03-16T07:03:08.002Z,3.25
2023-03-16T07:05:35.969Z,2.70
2023-03-16T07:08:04.991Z,2.70
2023-03-16T07:10:32.643Z,3.22
2023-03-16T07:13:00.262Z,3.00
2023-03-16T07:15:28.350Z,3.08
2023-03-16T07:17:56.274Z,3.20
2023-03-16T07:20:24.802Z,3.17
2023-03-16T07:22:52.622Z,4.90
2023-03-16T07:25:21.463Z,3.00
2023-03-16T07:27:49.319Z,3.28
2023-03-16T07:30:17.836Z,3.47
2023-03-16T07:32:46.284Z,3.12
2023-03-16T07:35:15.673Z,3.30
2023-03-16T07:37:44.669Z,3.58
2023-03-16T07:40:12.939Z,2.80
2023-03-16T07:42:41.612Z,3.00
2023-03-16T07:45:10.496Z,3.30
2023-03-16T07:47:38.478Z,3.05
2023-03-16T07:50:07.405Z,3.37
2023-03-16T07:52:37.558Z,2.90
2023-03-16T07:55:06.497Z,3.03
2023-03-16T07:57:34.553Z,3.35
2023-03-16T08:00:05.347Z,3.70
2023-03-16T08:02:41.933Z,2.87
2023-03-16T08:05:12.983Z,2.92
2023-03-16T08:07:41.355Z,2.97
2023-03-16T08:10:10.052Z,3.03
2023-03-16T08:12:38.089Z,3.15
2023-03-16T08:15:06.325Z,3.42
2023-03-16T08:17:34.677Z,3.28
2023-03-16T08:20:12.706Z,3.10
2023-03-16T08:22:42.182Z,3.00
2023-03-16T08:25:10.799Z,3.70
2023-03-16T08:27:39.120Z,3.60
2023-03-16T08:30:11.526Z,3.17
2023-03-16T08:32:41.146Z,3.17
2023-03-16T08:35:13.948Z,3.60
2023-03-16T08:37:42.534Z,3.10
2023-03-16T08:40:13.952Z,2.90
2023-03-16T08:42:43.111Z,3.35
2023-03-16T08:45:13.942Z,3.63
2023-03-16T08:47:42.702Z,3.03
2023-03-16T08:50:15.688Z,3.53
2023-03-16T08:52:43.571Z,3.15
2023-03-16T08:55:11.275Z,3.33
2023-03-16T08:57:41.810Z,3.17
2023-03-16T09:00:13.780Z,3.12
2023-03-16T09:02:42.376Z,3.58
2023-03-16T09:05:12.902Z,2.87
2023-03-16T09:07:40.929Z,3.15
2023-03-16T09:10:11.872Z,3.53
2023-03-16T09:12:40.997Z,3.22
2023-03-16T09:15:10.273Z,3.55
2023-03-16T09:17:39.166Z,3.30
2023-03-16T09:20:35.149Z,3.30
2023-03-16T09:22:58.825Z,3.10
2023-03-16T09:25:26.725Z,3.65
2023-03-16T09:27:54.713Z,3.97
2023-03-16T09:30:22.511Z,3.17
2023-03-16T09:32:50.874Z,3.53
2023-03-16T09:35:18.768Z,3.03
2023-03-16T09:38:04.883Z,2.92
2023-03-16T09:40:36.042Z,4.05
2023-03-16T09:43:09.541Z,3.10
2023-03-16T09:45:56.732Z,2.62
2023-03-16T09:48:27.173Z,3.27
2023-03-16T09:50:57.573Z,3.15
2023-03-16T09:53:34.334Z,2.87
2023-03-16T09:56:20.397Z,2.80
2023-03-16T09:58:48.074Z,2.37
2023-03-16T10:01:37.162Z,2.43
2023-03-16T10:04:23.239Z,2.50
2023-03-16T10:07:21.243Z,2.20
2023-03-16T10:09:58.315Z,2.00
2023-03-16T10:12:41.976Z,2.50
2023-03-16T10:15:21.111Z,2.53
2023-03-16T10:18:07.265Z,2.65
2023-03-16T10:20:35.238Z,2.42
2023-03-16T10:23:18.504Z,1.80
2023-03-16T10:25:54.381Z,2.25
2023-03-16T10:28:23.064Z,2.60
2023-03-16T10:30:53.687Z,2.47
2023-03-16T10:33:32.380Z,2.90
2023-03-16T10:36:25.403Z,2.30
2023-03-16T10:39:19.727Z,2.17
2023-03-16T10:41:57.065Z,2.80
2023-03-16T10:44:30.149Z,2.35
2023-03-16T10:47:04.557Z,2.78
2023-03-16T10:49:44.389Z,2.42
2023-03-16T10:52:24.987Z,2.30
2023-03-16T10:54:58.786Z,2.30
2023-03-16T10:57:37.562Z,2.53
2023-03-16T11:00:15.426Z,2.65
2023-03-16T11:02:44.121Z,2.37
2023-03-16T11:05:33.219Z,2.90
2023-03-16T11:08:23.795Z,2.07
2023-03-16T11:10:59.921Z,2.15
2023-03-16T11:13:35.760Z,2.65
2023-03-16T11:16:17.817Z,2.87
2023-03-16T11:18:54.491Z,2.90
2023-03-16T11:21:38.648Z,2.47
2023-03-16T11:24:31.470Z,2.58
2023-03-16T11:27:04.579Z,2.35
2023-03-16T11:29:47.848Z,2.40
2023-03-16T11:32:20.812Z,2.53
2023-03-16T11:34:49.072Z,2.63
2023-03-16T11:37:23.933Z,2.60
2023-03-16T11:40:09.432Z,2.58
2023-03-16T11:42:51.601Z,2.22
2023-03-16T11:45:27.585Z,2.15
2023-03-16T11:48:13.562Z,2.13
2023-03-16T11:50:54.185Z,2.45
2023-03-16T11:53:53.795Z,2.65
2023-03-16T11:56:43.214Z,2.30
2023-03-16T11:59:19.497Z,2.12
2023-03-16T12:02:10.965Z,2.07
2023-03-16T12:05:10.157Z,2.30
2023-03-16T12:08:33.254Z,2.22
2023-03-16T12:11:13.175Z,2.10
2023-03-16T12:13:55.543Z,2.15
2023-03-16T12:16:49.068Z,2.20
2023-03-16T12:19:24.927Z,2.47
2023-03-16T12:22:10.595Z,2.72
2023-03-16T12:24:48.117Z,2.50
2023-03-16T12:27:38.871Z,2.60
2023-03-16T12:30:09.747Z,2.97
2023-03-16T12:32:41.081Z,2.42
2023-03-16T12:35:30.369Z,2.35
2023-03-16T12:38:17.680Z,2.58
2023-03-16T12:40:54.623Z,2.30
2023-03-16T12:43:37.392Z,1.90
2023-03-16T12:46:14.287Z,2.35
2023-03-16T12:48:49.164Z,2.67
2023-03-16T12:51:17.413Z,2.62
2023-03-16T12:53:54.731Z,2.55
2023-03-16T12:56:37.499Z,2.30
2023-03-16T12:59:07.606Z,2.45
2023-03-16T13:01:42.574Z,2.47
2023-03-16T13:04:21.438Z,2.87
2023-03-16T13:07:03.262Z,2.30
2023-03-16T13:09:34.232Z,2.53
2023-03-16T13:12:05.163Z,1.85
2023-03-16T13:14:42.650Z,2.03
2023-03-16T13:17:16.085Z,1.87
2023-03-16T13:19:46.679Z,2.20
2023-03-16T13:22:45.478Z,2.17
2023-03-16T13:25:25.558Z,2.15
2023-03-16T13:27:55.929Z,2.58
2023-03-16T13:30:28.822Z,2.00
2023-03-16T13:33:01.699Z,2.53
2023-03-16T13:35:30.565Z,1.73
2023-03-16T13:38:08.234Z,2.37
2023-03-16T13:40:38.926Z,2.50
2023-03-16T13:43:07.146Z,1.73
2023-03-16T13:45:38.867Z,2.20
2023-03-16T13:48:06.813Z,1.77
2023-03-16T13:50:36.430Z,1.55
2023-03-16T13:53:10.875Z,2.10
2023-03-16T13:55:39.155Z,2.08
2023-03-16T13:58:18.410Z,2.10
2023-03-16T14:00:47.206Z,2.10
2023-03-16T14:03:18.731Z,2.08
2023-03-16T14:05:47.657Z,1.90
2023-03-16T14:08:23.985Z,1.67
2023-03-16T14:10:54.542Z,2.00
2023-03-16T14:13:25.571Z,2.07
2023-03-16T14:15:55.505Z,1.75
2023-03-16T14:18:30.425Z,1.80
2023-03-16T14:20:58.046Z,1.73
2023-03-16T14:23:33.631Z,2.08
2023-03-16T14:26:05.671Z,1.93
2023-03-16T14:28:34.310Z,1.92
2023-03-16T14:31:13.598Z,1.90
2023-03-16T14:33:43.018Z,1.70
2023-03-16T14:36:13.534Z,2.25
2023-03-16T14:38:43.807Z,1.30
2023-03-16T14:41:30.119Z,1.23
2023-03-16T14:44:00.232Z,1.60
2023-03-16T14:46:41.226Z,1.95
2023-03-16T14:49:30.768Z,2.37
2023-03-16T14:52:31.752Z,1.57
2023-03-16T14:55:03.554Z,1.77
2023-03-16T14:57:31.367Z,1.62
2023-03-16T14:59:59.197Z,1.55
2023-03-16T15:02:32.482Z,1.35
2023-03-16T15:05:02.179Z,1.67
2023-03-16T15:07:32.896Z,1.10
2023-03-16T15:10:15.976Z,1.33
2023-03-16T15:12:50.535Z,1.20
2023-03-16T15:15:20.674Z,1.60
2023-03-16T15:17:50.647Z,1.47
2023-03-16T15:20:23.323Z,1.67
2023-03-16T15:22:53.165Z,1.58
2023-03-16T15:25:37.797Z,1.60
2023-03-16T15:28:23.724Z,1.40
2023-03-16T15:30:57.529Z,1.17
2023-03-16T15:33:26.653Z,1.58
2023-03-16T15:35:58.693Z,1.48
2023-03-16T15:38:32.316Z,1.30
2023-03-16T15:41:00.360Z,1.73
2023-03-16T15:43:30.702Z,1.40
2023-03-16T15:45:59.837Z,1.60
2023-03-16T15:48:27.738Z,1.35
2023-03-16T15:51:07.729Z,1.60
2023-03-16T15:53:50.294Z,1.37
2023-03-16T15:56:22.815Z,1.20
2023-03-16T15:58:51.151Z,1.90
2023-03-16T16:01:27.001Z,2.00
2023-03-16T16:03:56.076Z,0.93
2023-03-16T16:06:24.364Z,1.30
2023-03-16T16:08:52.424Z,1.47
2023-03-16T16:11:28.410Z,1.35
2023-03-16T16:13:58.387Z,1.10
2023-03-16T16:16:29.015Z,0.98
2023-03-16T16:18:56.970Z,1.35
2023-03-16T16:21:29.019Z,0.83
2023-03-16T16:23:57.333Z,1.17
2023-03-16T16:26:54.689Z,1.20
2023-03-16T16:29:27.742Z,1.27
2023-03-16T16:31:55.605Z,1.40
2023-03-16T16:34:25.202Z,1.30
2023-03-16T16:36:57.705Z,1.92
2023-03-16T16:39:25.667Z,1.83
2023-03-16T16:41:55.360Z,1.90
2023-03-16T16:44:27.368Z,1.58
2023-03-16T16:46:55.651Z,1.40
2023-03-16T16:49:30.605Z,1.30
2023-03-16T16:51:59.493Z,1.25
2023-03-16T16:54:32.001Z,1.77
2023-03-16T16:57:01.220Z,1.62
2023-03-16T16:59:34.230Z,1.70
2023-03-16T17:02:04.167Z,1.50
2023-03-16T17:04:31.981Z,1.55
2023-03-16T17:07:01.987Z,1.42
2023-03-16T17:09:31.051Z,1.37
2023-03-16T17:12:01.145Z,1.50
2023-03-16T17:14:29.166Z,1.20
2023-03-16T17:16:59.915Z,1.90
2023-03-16T17:19:28.735Z,1.77
2023-03-16T17:21:58.432Z,1.42
2023-03-16T17:24:26.869Z,1.77
2023-03-16T17:26:58.816Z,2.17
2023-03-16T17:29:31.590Z,2.15
2023-03-16T17:32:01.445Z,1.95
2023-03-16T17:34:32.455Z,1.75
2023-03-16T17:37:00.034Z,2.23
2023-03-16T17:39:32.617Z,1.87
2023-03-16T17:42:02.817Z,2.22
2023-03-16T17:44:38.034Z,2.78
2023-03-16T17:47:15.163Z,3.08
2023-03-16T17:49:44.814Z,3.50
2023-03-16T17:52:18.761Z,3.70
2023-03-16T17:54:47.324Z,3.25
2023-03-16T17:57:31.157Z,3.70
2023-03-16T18:00:00.353Z,3.30
2023-03-16T18:02:56.069Z,2.50
2023-03-16T18:05:27.322Z,2.70
2023-03-16T18:07:58.338Z,2.37
2023-03-16T18:10:29.693Z,3.05
2023-03-16T18:13:02.414Z,2.47
2023-03-16T18:15:33.790Z,2.70
2023-03-16T18:18:01.754Z,3.72
2023-03-16T18:20:34.731Z,3.25
2023-03-16T18:23:18.751Z,3.50
2023-03-16T18:25:48.558Z,3.15
2023-03-16T18:28:17.402Z,3.43
2023-03-16T18:30:47.582Z,2.87
2023-03-16T18:33:34.385Z,3.55
2023-03-16T18:36:08.082Z,4.43
2023-03-16T18:38:38.449Z,4.00
2023-03-16T18:41:24.161Z,4.50
2023-03-16T18:43:54.082Z,4.95
2023-03-16T18:46:26.585Z,4.85
2023-03-16T18:48:57.199Z,5.05
2023-03-16T18:51:25.834Z,4.87
2023-03-16T18:53:54.218Z,4.60
2023-03-16T18:56:27.274Z,5.60
2023-03-16T18:58:56.587Z,5.93
2023-03-16T19:01:29.640Z,5.60
2023-03-16T19:04:01.695Z,5.70
2023-03-16T19:06:32.290Z,5.63
2023-03-16T19:09:19.394Z,5.95
2023-03-16T19:11:47.526Z,5.12
2023-03-16T19:14:19.801Z,6.07
2023-03-16T19:16:47.480Z,5.60
2023-03-16T19:19:15.579Z,5.40
2023-03-16T19:21:43.605Z,5.65
2023-03-16T19:24:25.815Z,5.70
2023-03-16T19:26:55.218Z,4.87
2023-03-16T19:29:29.765Z,4.50
2023-03-16T19:31:58.579Z,5.57
2023-03-16T19:34:26.565Z,5.75
2023-03-16T19:36:54.083Z,4.85
2023-03-16T19:39:22.029Z,4.55
2023-03-16T19:41:55.907Z,5.22
2023-03-16T19:44:26.202Z,4.53
2023-03-16T19:46:55.111Z,5.07
2023-03-16T19:49:25.240Z,4.50
2023-03-16T19:51:55.898Z,3.90
2023-03-16T19:54:29.282Z,4.22
2023-03-16T19:57:01.223Z,4.63
2023-03-16T19:59:32.727Z,5.32
2023-03-16T20:02:01.048Z,4.93
2023-03-16T20:04:28.974Z,5.75
2023-03-16T20:06:56.581Z,5.22
2023-03-16T20:09:24.418Z,4.90
2023-03-16T20:11:52.279Z,3.72
2023-03-16T20:14:28.802Z,3.85
2023-03-16T20:16:56.869Z,3.60
2023-03-16T20:19:24.697Z,3.83
2023-03-16T20:21:52.180Z,2.97
2023-03-16T20:24:21.599Z,2.85
2023-03-16T20:26:51.529Z,2.92
2023-03-16T20:29:29.499Z,3.20
2023-03-16T20:31:58.087Z,2.67
2023-03-16T20:34:29.554Z,2.77
2023-03-16T20:36:57.918Z,2.87
2023-03-16T20:39:25.682Z,2.83
2023-03-16T20:41:53.334Z,3.58
2023-03-16T20:44:25.326Z,3.50
2023-03-16T20:46:52.970Z,2.97
2023-03-16T20:49:25.276Z,3.17
2023-03-16T20:51:53.315Z,3.30
2023-03-16T20:54:22.883Z,2.30
2023-03-16T20:56:50.420Z,2.85
2023-03-16T20:59:23.643Z,2.97
2023-03-16T21:01:55.537Z,2.35
2023-03-16T21:04:27.348Z,2.50
2023-03-16T21:06:56.943Z,3.37
2023-03-16T21:09:24.637Z,2.53
2023-03-16T21:11:52.721Z,2.77
2023-03-16T21:14:23.096Z,2.45
2023-03-16T21:16:51.566Z,2.90
2023-03-16T21:19:21.754Z,2.70
2023-03-16T21:21:49.893Z,2.30
2023-03-16T21:24:17.488Z,2.60
2023-03-16T21:26:46.806Z,2.55
2023-03-16T21:29:20.843Z,2.70
2023-03-16T21:31:48.685Z,2.70
2023-03-16T21:34:28.037Z,3.05
2023-03-16T21:36:55.622Z,3.47
2023-03-16T21:39:25.469Z,3.60
2023-03-16T21:41:53.637Z,4.35
2023-03-16T21:44:21.793Z,4.12
2023-03-16T21:46:49.832Z,3.75
2023-03-16T21:49:18.215Z,3.40
2023-03-16T21:51:45.727Z,3.42
2023-03-16T21:54:18.082Z,3.67
2023-03-16T21:56:46.371Z,3.22
2023-03-16T21:59:14.215Z,2.87
2023-03-16T22:01:58.292Z,3.17
2023-03-16T22:04:29.588Z,3.70
2023-03-16T22:06:57.436Z,3.17
2023-03-16T22:09:29.944Z,2.60
2023-03-16T22:11:58.020Z,1.70
2023-03-16T22:14:25.631Z,2.80
2023-03-16T22:16:53.122Z,2.58
2023-03-16T22:19:21.218Z,2.75
2023-03-16T22:21:49.924Z,3.17
2023-03-16T22:24:31.388Z,3.30
2023-03-16T22:26:59.459Z,3.23
2023-03-16T22:29:31.724Z,3.47
2023-03-16T22:32:04.516Z,3.95
2023-03-16T22:34:51.113Z,3.75
2023-03-16T22:37:23.046Z,3.05
2023-03-16T22:39:51.280Z,3.17
2023-03-16T22:42:37.118Z,3.40
2023-03-16T22:45:25.668Z,2.83
2023-03-16T22:47:56.332Z,2.50
2023-03-16T22:50:27.556Z,3.03
2023-03-16T22:53:03.166Z,2.80
2023-03-16T22:55:35.675Z,2.47
2023-03-16T22:58:19.653Z,2.60
2023-03-16T23:00:47.256Z,3.05
2023-03-16T23:03:18.718Z,2.95
2023-03-16T23:05:46.430Z,2.10
2023-03-16T23:08:17.430Z,2.83
2023-03-16T23:10:46.237Z,2.22
2023-03-16T23:13:17.010Z,2.37
2023-03-16T23:15:48.318Z,2.67
2023-03-16T23:18:21.995Z,2.27
2023-03-16T23:20:51.414Z,2.42
2023-03-16T23:23:19.281Z,2.90
2023-03-16T23:25:47.963Z,2.12
2023-03-16T23:28:20.922Z,2.40
2023-03-16T23:30:48.790Z,2.10
2023-03-16T23:33:17.653Z,2.33
2023-03-16T23:35:46.959Z,2.37
2023-03-16T23:38:14.670Z,2.55
2023-03-16T23:40:42.488Z,2.87
2023-03-16T23:43:09.951Z,2.53
2023-03-16T23:45:42.524Z,2.42
2023-03-16T23:48:21.203Z,2.67
2023-03-16T23:50:52.282Z,2.22
2023-03-16T23:53:21.315Z,2.20
2023-03-16T23:55:49.036Z,2.50
2023-03-16T23:58:16.743Z,2.42
